createdAt,value
2018-11-06T00:00:32.571Z,40.03
2018-11-06T00:03:06.187Z,38.47
2018-11-06T00:05:34.627Z,41.60
2018-11-06T00:08:03.021Z,36.40
2018-11-06T00:10:31.450Z,37.87
2018-11-06T00:12:59.878Z,37.97
2018-11-06T00:15:28.848Z,37.10
2018-11-06T00:17:57.966Z,38.57
2018-11-06T00:20:26.417Z,38.37
2018-11-06T00:22:54.789Z,38.70
2018-11-06T00:25:24.159Z,37.47
2018-11-06T00:27:52.615Z,38.77
2018-11-06T00:30:21.035Z,40.83
2018-11-06T00:32:49.648Z,37.53
2018-11-06T00:35:18.051Z,38.20
2018-11-06T00:37:46.454Z,37.03
2018-11-06T00:40:14.951Z,36.37
2018-11-06T00:42:44.116Z,35.87
2018-11-06T00:45:14.757Z,34.93
2018-11-06T00:47:43.585Z,31.53
2018-11-06T00:50:12.729Z,34.37
2018-11-06T00:52:42.281Z,33.37
2018-11-06T00:55:11.339Z,35.30
2018-11-06T00:57:41.465Z,35.10
2018-11-06T01:00:14.145Z,35.20
2018-11-06T01:02:42.867Z,33.90
2018-11-06T01:05:12.174Z,31.90
2018-11-06T01:07:40.918Z,31.10
2018-11-06T01:10:10.304Z,33.63
2018-11-06T01:12:38.940Z,33.70
2018-11-06T01:15:08.773Z,33.43
2018-11-06T01:17:37.218Z,32.47
2018-11-06T01:20:07.833Z,31.80
2018-11-06T01:22:36.610Z,33.50
2018-11-06T01:25:06.433Z,31.93
2018-11-06T01:27:34.876Z,32.10
2018-11-06T01:30:03.460Z,32.83
2018-11-06T01:32:31.982Z,31.73
2018-11-06T01:35:00.426Z,31.23
2018-11-06T01:37:28.863Z,32.13
2018-11-06T01:39:57.308Z,31.97
2018-11-06T01:42:25.722Z,32.67
2018-11-06T01:44:54.235Z,32.30
2018-11-06T01:47:23.566Z,33.03
2018-11-06T01:49:51.992Z,32.07
2018-11-06T01:52:21.125Z,33.27
2018-11-06T01:54:49.641Z,31.33
2018-11-06T01:57:18.136Z,32.07
2018-11-06T01:59:46.578Z,31.63
2018-11-06T02:02:15.035Z,31.10
2018-11-06T02:04:43.487Z,30.47
2018-11-06T02:07:12.028Z,31.23
2018-11-06T02:09:40.519Z,30.73
2018-11-06T02:12:08.982Z,31.67
2018-11-06T02:14:37.547Z,32.43
2018-11-06T02:17:06.045Z,30.80
2018-11-06T02:19:34.513Z,32.30
2018-11-06T02:22:02.930Z,30.87
2018-11-06T02:24:31.411Z,31.40
2018-11-06T02:26:59.785Z,31.63
2018-11-06T02:29:28.298Z,32.33
2018-11-06T02:31:57.719Z,31.83
2018-11-06T02:34:26.169Z,32.60
2018-11-06T02:36:55.041Z,31.73
2018-11-06T02:39:23.429Z,32.17
2018-11-06T02:41:51.904Z,31.67
2018-11-06T02:44:20.396Z,32.03
2018-11-06T02:46:48.936Z,34.57
2018-11-06T02:49:18.035Z,32.97
2018-11-06T02:51:46.719Z,32.50
2018-11-06T02:54:15.273Z,31.87
2018-11-06T02:56:43.645Z,32.27
2018-11-06T02:59:12.857Z,31.83
2018-11-06T03:01:41.364Z,32.93
2018-11-06T03:04:09.725Z,31.70
2018-11-06T03:06:38.250Z,32.10
2018-11-06T03:09:07.517Z,32.77
2018-11-06T03:11:36.010Z,31.70
2018-11-06T03:14:04.995Z,31.40
2018-11-06T03:16:33.515Z,32.47
2018-11-06T03:19:01.948Z,33.53
2018-11-06T03:21:30.911Z,32.93
2018-11-06T03:23:59.350Z,33.77
2018-11-06T03:26:28.619Z,34.90
2018-11-06T03:28:57.351Z,34.60
2018-11-06T03:31:25.891Z,33.47
2018-11-06T03:33:55.343Z,34.03
2018-11-06T03:36:24.862Z,34.10
2018-11-06T03:38:53.308Z,35.33
2018-11-06T03:41:21.830Z,36.23
2018-11-06T03:43:51.244Z,39.07
2018-11-06T03:46:19.676Z,38.17
2018-11-06T03:48:48.127Z,36.17
2018-11-06T03:51:16.600Z,37.40
2018-11-06T03:53:45.102Z,36.33
2018-11-06T03:56:13.566Z,36.93
2018-11-06T03:58:42.004Z,37.23
2018-11-06T04:01:10.485Z,36.53
2018-11-06T04:03:38.897Z,38.37
2018-11-06T04:06:07.362Z,37.57
2018-11-06T04:08:35.782Z,36.97
2018-11-06T04:11:04.191Z,37.13
2018-11-06T04:13:32.534Z,38.97
2018-11-06T04:16:01.003Z,38.00
2018-11-06T04:18:29.427Z,35.50
2018-11-06T04:20:57.835Z,40.43
2018-11-06T04:23:26.757Z,36.60
2018-11-06T04:25:55.207Z,40.07
2018-11-06T04:28:23.684Z,38.07
2018-11-06T04:30:52.042Z,36.13
2018-11-06T04:33:20.592Z,38.03
2018-11-06T04:35:48.959Z,37.50
2018-11-06T04:38:17.381Z,37.10
2018-11-06T04:40:45.763Z,35.73
2018-11-06T04:43:14.189Z,37.07
2018-11-06T04:45:42.604Z,35.67
2018-11-06T04:48:11.034Z,34.00
2018-11-06T04:50:39.499Z,33.53
2018-11-06T04:53:07.928Z,35.30
2018-11-06T04:55:36.410Z,35.83
2018-11-06T04:58:04.824Z,35.90
2018-11-06T05:00:33.270Z,36.73
2018-11-06T05:03:01.691Z,37.80
2018-11-06T05:05:30.171Z,37.07
2018-11-06T05:07:59.404Z,36.40
2018-11-06T05:10:28.513Z,35.03
2018-11-06T05:12:56.952Z,34.93
2018-11-06T05:15:25.424Z,37.43
2018-11-06T05:17:53.856Z,36.00
2018-11-06T05:20:22.258Z,35.90
2018-11-06T05:22:50.630Z,37.10
2018-11-06T05:25:19.092Z,37.03
2018-11-06T05:27:48.794Z,37.60
2018-11-06T05:30:17.753Z,36.70
2018-11-06T05:32:46.565Z,39.10
2018-11-06T05:35:15.210Z,36.97
2018-11-06T05:37:44.852Z,38.33
2018-11-06T05:40:24.451Z,37.03
2018-11-06T05:42:52.973Z,38.67
2018-11-06T05:45:21.498Z,37.43
2018-11-06T05:47:49.975Z,37.07
2018-11-06T05:50:18.441Z,37.53
2018-11-06T05:52:47.323Z,38.23
2018-11-06T05:55:15.726Z,37.17
2018-11-06T05:57:44.226Z,38.57
2018-11-06T06:00:12.637Z,37.60
2018-11-06T06:02:41.071Z,37.10
2018-11-06T06:05:09.579Z,37.03
2018-11-06T06:07:38.041Z,38.13
2018-11-06T06:10:07.002Z,35.57
2018-11-06T06:12:36.786Z,34.87
2018-11-06T06:15:06.109Z,37.23
2018-11-06T06:17:34.507Z,36.27
2018-11-06T06:20:15.890Z,35.20
2018-11-06T06:22:44.421Z,36.27
2018-11-06T06:25:12.784Z,36.03
2018-11-06T06:27:43.385Z,36.37
2018-11-06T06:30:14.468Z,38.70
2018-11-06T06:32:43.221Z,36.17
2018-11-06T06:35:12.348Z,37.43
2018-11-06T06:37:48.007Z,35.50
2018-11-06T06:40:17.315Z,37.00
2018-11-06T06:42:47.428Z,38.17
2018-11-06T06:45:19.124Z,36.07
2018-11-06T06:47:47.586Z,37.67
2018-11-06T06:50:17.384Z,35.97
2018-11-06T06:52:46.515Z,36.50
2018-11-06T06:55:15.898Z,36.37
2018-11-06T06:57:45.426Z,37.57
2018-11-06T07:00:18.746Z,36.27
2018-11-06T07:02:47.254Z,38.10
2018-11-06T07:05:20.011Z,37.40
2018-11-06T07:07:48.467Z,37.90
2018-11-06T07:10:18.381Z,38.73
2018-11-06T07:12:47.769Z,36.67
2018-11-06T07:15:17.360Z,37.70
2018-11-06T07:17:46.786Z,35.37
2018-11-06T07:20:17.457Z,37.37
2018-11-06T07:22:45.990Z,35.33
2018-11-06T07:25:14.873Z,36.57
2018-11-06T07:27:44.400Z,36.23
2018-11-06T07:30:15.257Z,36.27
2018-11-06T07:32:44.349Z,36.77
2018-11-06T07:35:13.704Z,36.87
2018-11-06T07:37:42.441Z,37.37
2018-11-06T07:40:12.210Z,39.03
2018-11-06T07:42:40.850Z,38.77
2018-11-06T07:45:16.573Z,37.10
2018-11-06T07:47:45.023Z,38.87
2018-11-06T07:50:14.284Z,36.97
2018-11-06T07:52:42.870Z,36.13
2018-11-06T07:55:13.899Z,34.37
2018-11-06T07:57:42.627Z,31.90
2018-11-06T08:00:17.612Z,32.30
2018-11-06T08:02:47.047Z,30.67
2018-11-06T08:05:16.129Z,29.80
2018-11-06T08:07:45.378Z,28.80
2018-11-06T08:10:14.260Z,27.40
2018-11-06T08:12:44.956Z,26.83
2018-11-06T08:15:13.827Z,26.73
2018-11-06T08:17:43.580Z,26.17
2018-11-06T08:20:12.110Z,25.90
2018-11-06T08:22:40.578Z,27.27
2018-11-06T08:25:10.637Z,26.27
2018-11-06T08:27:40.033Z,26.87
2018-11-06T08:30:09.364Z,26.53
2018-11-06T08:32:38.177Z,26.40
2018-11-06T08:35:08.651Z,25.93
2018-11-06T08:37:37.202Z,25.63
2018-11-06T08:40:06.621Z,23.80
2018-11-06T08:42:35.137Z,24.43
2018-11-06T08:45:03.749Z,25.13
2018-11-06T08:47:32.225Z,24.00
2018-11-06T08:50:00.728Z,23.63
2018-11-06T08:52:29.218Z,23.83
2018-11-06T08:54:57.779Z,23.07
2018-11-06T08:57:26.253Z,22.80
2018-11-06T08:59:54.826Z,22.37
2018-11-06T09:02:23.293Z,22.33
2018-11-06T09:04:51.807Z,23.33
2018-11-06T09:07:20.418Z,22.40
2018-11-06T09:09:48.929Z,22.90
2018-11-06T09:12:17.342Z,22.33
2018-11-06T09:14:46.063Z,22.37
2018-11-06T09:17:14.716Z,22.23
2018-11-06T09:19:43.164Z,22.50
2018-11-06T09:22:11.623Z,23.07
2018-11-06T09:24:40.119Z,21.80
2018-11-06T09:27:08.679Z,22.43
2018-11-06T09:29:37.212Z,22.50
2018-11-06T09:32:06.563Z,20.33
2018-11-06T09:34:35.033Z,21.27
2018-11-06T09:37:03.470Z,21.33
2018-11-06T09:39:31.916Z,21.40
2018-11-06T09:42:00.383Z,21.60
2018-11-06T09:44:28.818Z,19.40
2018-11-06T09:46:58.256Z,21.53
2018-11-06T09:49:26.652Z,21.00
2018-11-06T09:51:55.152Z,20.43
2018-11-06T09:54:23.551Z,19.33
2018-11-06T09:56:52.079Z,20.13
2018-11-06T09:59:20.624Z,20.63
2018-11-06T10:01:49.087Z,20.87
2018-11-06T10:04:17.613Z,21.83
2018-11-06T10:06:46.210Z,22.40
2018-11-06T10:09:14.601Z,22.87
2018-11-06T10:11:43.807Z,22.03
2018-11-06T10:14:12.292Z,21.13
2018-11-06T10:16:40.775Z,19.90
2018-11-06T10:19:09.194Z,20.20
2018-11-06T10:21:37.599Z,20.07
2018-11-06T10:24:06.435Z,19.57
2018-11-06T10:26:35.016Z,20.70
2018-11-06T10:29:03.438Z,19.30
2018-11-06T10:31:31.874Z,20.07
2018-11-06T10:34:00.329Z,19.27
2018-11-06T10:36:28.765Z,21.90
2018-11-06T10:38:57.257Z,22.17
2018-11-06T10:41:25.642Z,22.73
2018-11-06T10:43:54.949Z,21.57
2018-11-06T10:46:23.439Z,21.57
2018-11-06T10:48:52.153Z,21.57
2018-11-06T10:51:20.768Z,21.03
2018-11-06T10:53:49.360Z,22.00
2018-11-06T10:56:17.844Z,21.43
2018-11-06T10:58:46.321Z,21.03
2018-11-06T11:01:19.908Z,22.87
2018-11-06T11:03:53.667Z,21.87
2018-11-06T11:06:22.149Z,21.13
2018-11-06T11:08:50.903Z,21.90
2018-11-06T11:11:19.345Z,22.00
2018-11-06T11:13:48.099Z,22.57
2018-11-06T11:16:16.590Z,21.13
2018-11-06T11:18:45.235Z,22.47
2018-11-06T11:21:13.843Z,21.77
2018-11-06T11:23:42.714Z,22.87
2018-11-06T11:26:11.271Z,23.10
2018-11-06T11:28:39.771Z,21.70
2018-11-06T11:31:08.306Z,21.17
2018-11-06T11:33:36.766Z,21.63
2018-11-06T11:36:05.249Z,22.60
2018-11-06T11:38:33.714Z,21.27
2018-11-06T11:41:02.241Z,20.83
2018-11-06T11:43:30.775Z,20.97
2018-11-06T11:45:59.335Z,21.00
2018-11-06T11:48:28.263Z,21.13
2018-11-06T11:50:56.740Z,23.57
2018-11-06T11:53:25.155Z,21.93
2018-11-06T11:55:53.670Z,23.47
2018-11-06T11:58:22.138Z,22.97
2018-11-06T12:00:50.601Z,23.23
2018-11-06T12:03:19.618Z,23.10
2018-11-06T12:05:48.130Z,22.50
2018-11-06T12:08:16.638Z,22.77
2018-11-06T12:10:45.275Z,23.10
2018-11-06T12:13:14.208Z,25.00
2018-11-06T12:15:42.589Z,22.73
2018-11-06T12:18:11.035Z,22.20
2018-11-06T12:20:39.408Z,22.73
2018-11-06T12:23:07.815Z,20.90
2018-11-06T12:25:36.553Z,19.90
2018-11-06T12:28:05.657Z,19.23
2018-11-06T12:30:34.126Z,18.43
2018-11-06T12:33:02.596Z,19.13
2018-11-06T12:35:31.037Z,19.77
2018-11-06T12:38:00.054Z,18.53
2018-11-06T12:40:28.498Z,19.77
2018-11-06T12:42:57.013Z,20.13
2018-11-06T12:45:26.007Z,19.93
2018-11-06T12:47:54.505Z,20.40
2018-11-06T12:50:23.166Z,19.83
2018-11-06T12:52:51.581Z,19.77
2018-11-06T12:55:20.158Z,21.53
2018-11-06T12:57:48.592Z,22.47
2018-11-06T13:00:19.223Z,21.90
2018-11-06T13:02:47.718Z,20.50
2018-11-06T13:05:16.260Z,21.63
2018-11-06T13:07:45.460Z,21.63
2018-11-06T13:10:14.791Z,20.47
2018-11-06T13:12:43.780Z,20.17
2018-11-06T13:15:12.618Z,21.07
2018-11-06T13:17:41.970Z,20.87
2018-11-06T13:20:13.021Z,19.53
2018-11-06T13:22:43.158Z,19.50
2018-11-06T13:25:12.442Z,19.50
2018-11-06T13:27:41.900Z,19.10
2018-11-06T13:30:13.771Z,18.13
2018-11-06T13:32:42.946Z,18.77
2018-11-06T13:35:11.800Z,19.23
2018-11-06T13:37:40.317Z,18.70
2018-11-06T13:40:11.037Z,18.37
2018-11-06T13:42:39.998Z,19.40
2018-11-06T13:45:11.513Z,18.07
2018-11-06T13:47:39.836Z,16.97
2018-11-06T13:50:08.902Z,16.57
2018-11-06T13:52:37.635Z,17.50
2018-11-06T13:55:07.581Z,17.67
2018-11-06T13:57:36.795Z,17.20
2018-11-06T14:00:09.544Z,18.87
2018-11-06T14:02:38.178Z,18.97
2018-11-06T14:05:06.844Z,19.33
2018-11-06T14:07:35.633Z,20.13
2018-11-06T14:10:04.272Z,19.70
2018-11-06T14:12:32.903Z,19.70
2018-11-06T14:15:01.654Z,20.67
2018-11-06T14:17:30.153Z,18.83
2018-11-06T14:19:59.341Z,20.77
2018-11-06T14:22:27.993Z,22.70
2018-11-06T14:24:56.495Z,22.77
2018-11-06T14:27:25.047Z,23.23
2018-11-06T14:29:53.607Z,21.53
2018-11-06T14:32:21.990Z,22.10
2018-11-06T14:34:50.930Z,21.37
2018-11-06T14:37:19.410Z,22.90
2018-11-06T14:39:47.929Z,22.50
2018-11-06T14:42:16.348Z,23.30
2018-11-06T14:44:44.883Z,38.80
2018-11-06T14:47:13.353Z,37.10
2018-11-06T14:49:42.419Z,25.60
2018-11-06T14:52:10.871Z,25.80
2018-11-06T14:54:40.283Z,25.00
2018-11-06T14:57:08.724Z,24.10
2018-11-06T14:59:37.243Z,24.73
2018-11-06T15:02:06.215Z,23.93
2018-11-06T15:04:34.706Z,23.87
2018-11-06T15:07:03.263Z,23.03
2018-11-06T15:09:31.739Z,26.67
2018-11-06T15:12:00.312Z,23.97
2018-11-06T15:14:28.746Z,24.87
2018-11-06T15:16:57.212Z,24.20
2018-11-06T15:19:25.622Z,25.43
2018-11-06T15:21:54.029Z,22.40
2018-11-06T15:24:22.468Z,23.97
2018-11-06T15:26:50.877Z,23.33
2018-11-06T15:29:19.274Z,24.27
2018-11-06T15:31:47.674Z,26.63
2018-11-06T15:34:16.046Z,26.50
2018-11-06T15:36:44.507Z,27.17
2018-11-06T15:39:13.432Z,25.77
2018-11-06T15:41:42.383Z,25.47
2018-11-06T15:44:11.006Z,25.30
2018-11-06T15:46:39.434Z,24.33
2018-11-06T15:49:08.026Z,24.30
2018-11-06T15:51:36.389Z,25.20
2018-11-06T15:54:04.777Z,25.63
2018-11-06T15:56:33.199Z,24.43
2018-11-06T15:59:01.555Z,25.10
2018-11-06T16:01:29.958Z,24.33
2018-11-06T16:03:58.392Z,26.10
2018-11-06T16:06:26.794Z,25.67
2018-11-06T16:08:56.043Z,26.53
2018-11-06T16:11:24.592Z,27.73
2018-11-06T16:13:53.015Z,26.70
2018-11-06T16:16:21.406Z,27.33
2018-11-06T16:18:49.783Z,27.50
2018-11-06T16:21:18.285Z,27.53
2018-11-06T16:23:46.726Z,30.07
2018-11-06T16:26:15.731Z,29.77
2018-11-06T16:28:44.198Z,30.37
2018-11-06T16:31:12.572Z,26.97
2018-11-06T16:33:41.111Z,28.37
2018-11-06T16:36:09.495Z,29.87
2018-11-06T16:38:37.973Z,27.30
2018-11-06T16:41:06.937Z,29.03
2018-11-06T16:43:35.861Z,27.57
2018-11-06T16:46:05.203Z,29.23
2018-11-06T16:48:33.859Z,28.60
2018-11-06T16:51:02.269Z,28.07
2018-11-06T16:53:30.705Z,29.40
2018-11-06T16:55:59.178Z,29.00
2018-11-06T16:58:27.573Z,29.43
2018-11-06T17:00:56.129Z,28.50
2018-11-06T17:03:24.564Z,28.17
2018-11-06T17:05:53.050Z,28.07
2018-11-06T17:08:21.459Z,29.97
2018-11-06T17:10:49.911Z,28.37
2018-11-06T17:13:18.408Z,28.80
2018-11-06T17:15:46.818Z,30.07
2018-11-06T17:18:15.304Z,29.80
2018-11-06T17:20:43.859Z,29.73
2018-11-06T17:23:12.428Z,28.83
2018-11-06T17:25:42.284Z,29.03
2018-11-06T17:28:11.470Z,28.37
2018-11-06T17:30:40.979Z,28.23
2018-11-06T17:33:09.385Z,27.90
2018-11-06T17:35:38.245Z,29.47
2018-11-06T17:38:07.133Z,28.83
2018-11-06T17:40:36.323Z,28.83
2018-11-06T17:43:04.896Z,28.17
2018-11-06T17:45:33.481Z,29.40
2018-11-06T17:48:01.979Z,29.43
2018-11-06T17:50:30.394Z,28.97
2018-11-06T17:52:58.821Z,28.33
2018-11-06T17:55:27.276Z,28.83
2018-11-06T17:57:55.811Z,28.53
2018-11-06T18:00:24.631Z,28.73
2018-11-06T18:02:53.113Z,26.53
2018-11-06T18:05:23.175Z,29.03
2018-11-06T18:07:51.639Z,26.07
2018-11-06T18:10:20.785Z,25.53
2018-11-06T18:12:49.421Z,25.27
2018-11-06T18:15:19.158Z,23.73
2018-11-06T18:17:47.908Z,24.97
2018-11-06T18:20:16.552Z,24.70
2018-11-06T18:22:45.633Z,22.37
2018-11-06T18:25:14.635Z,25.17
2018-11-06T18:27:43.078Z,24.17
2018-11-06T18:30:14.079Z,23.40
2018-11-06T18:32:43.091Z,22.80
2018-11-06T18:35:12.858Z,23.50
2018-11-06T18:37:41.635Z,22.57
2018-11-06T18:40:13.211Z,24.07
2018-11-06T18:42:42.071Z,22.83
2018-11-06T18:45:10.594Z,22.27
2018-11-06T18:47:39.250Z,22.97
2018-11-06T18:50:10.858Z,22.80
2018-11-06T18:52:40.485Z,22.60
2018-11-06T18:55:12.707Z,24.90
2018-11-06T18:57:42.233Z,23.90
2018-11-06T19:00:14.687Z,24.77
2018-11-06T19:02:44.275Z,23.37
2018-11-06T19:05:12.672Z,23.43
2018-11-06T19:07:41.089Z,24.43
2018-11-06T19:10:10.845Z,23.77
2018-11-06T19:12:39.329Z,23.67
2018-11-06T19:15:11.428Z,24.03
2018-11-06T19:17:40.078Z,24.63
2018-11-06T19:20:09.386Z,23.97
2018-11-06T19:22:38.375Z,23.20
2018-11-06T19:25:07.457Z,23.40
2018-11-06T19:27:36.084Z,23.77
2018-11-06T19:30:05.918Z,23.63
2018-11-06T19:32:41.969Z,24.33
2018-11-06T19:35:11.021Z,24.03
2018-11-06T19:40:45.224Z,23.53
2018-11-06T19:43:14.564Z,23.77
2018-11-06T19:45:55.120Z,24.13
2018-11-06T19:48:35.710Z,21.90
2018-11-06T19:51:16.521Z,22.83
2018-11-06T19:53:58.734Z,23.57
2018-11-06T19:56:42.707Z,22.87
2018-11-06T19:59:26.710Z,21.83
2018-11-06T20:02:07.378Z,23.90
2018-11-06T20:04:50.476Z,24.70
2018-11-06T20:07:34.032Z,23.93
2018-11-06T20:10:06.139Z,21.77
2018-11-06T20:12:49.130Z,22.10
2018-11-06T20:15:29.380Z,23.67
2018-11-06T20:18:09.803Z,23.10
2018-11-06T20:20:54.022Z,23.43
2018-11-06T20:23:36.447Z,23.50
2018-11-06T20:26:15.742Z,22.87
2018-11-06T20:28:54.926Z,22.83
2018-11-06T20:31:34.421Z,23.43
2018-11-06T20:34:15.982Z,24.73
2018-11-06T20:36:56.396Z,25.10
2018-11-06T20:39:24.948Z,24.17
2018-11-06T20:41:58.981Z,25.10
2018-11-06T20:44:32.474Z,24.37
2018-11-06T20:47:08.494Z,25.00
2018-11-06T20:49:37.471Z,25.73
2018-11-06T20:52:06.052Z,25.77
2018-11-06T20:54:35.372Z,25.77
2018-11-06T20:57:04.875Z,26.53
2018-11-06T20:59:33.342Z,27.67
2018-11-06T21:02:01.727Z,26.90
2018-11-06T21:04:30.201Z,24.57
2018-11-06T21:06:58.814Z,27.10
2018-11-06T21:09:27.279Z,25.93
2018-11-06T21:11:56.200Z,26.77
2018-11-06T21:14:25.379Z,28.67
2018-11-06T21:16:53.942Z,27.43
2018-11-06T21:19:22.519Z,29.07
2018-11-06T21:21:51.337Z,29.00
2018-11-06T21:24:20.095Z,29.00
2018-11-06T21:26:50.911Z,28.60
2018-11-06T21:29:20.208Z,29.67
2018-11-06T21:31:49.176Z,28.00
2018-11-06T21:34:17.978Z,28.47
2018-11-06T21:36:46.627Z,29.23
2018-11-06T21:39:16.493Z,28.63
2018-11-06T21:41:45.473Z,30.37
2018-11-06T21:44:14.547Z,29.47
2018-11-06T21:46:43.221Z,28.43
2018-11-06T21:49:13.579Z,29.93
2018-11-06T21:51:42.226Z,30.30
2018-11-06T21:54:10.791Z,30.27
2018-11-06T21:56:42.706Z,30.00
2018-11-06T21:59:11.176Z,29.43
2018-11-06T22:01:40.151Z,30.73
2018-11-06T22:04:09.173Z,30.97
2018-11-06T22:06:37.877Z,31.57
2018-11-06T22:09:08.074Z,31.87
2018-11-06T22:11:36.988Z,30.90
2018-11-06T22:14:05.924Z,32.03
2018-11-06T22:16:34.741Z,32.23
2018-11-06T22:19:14.395Z,33.90
2018-11-06T22:21:43.284Z,31.77
2018-11-06T22:24:12.552Z,30.13
2018-11-06T22:26:41.466Z,29.17
2018-11-06T22:29:10.200Z,28.10
2018-11-06T22:31:39.242Z,28.80
2018-11-06T22:34:07.757Z,28.67
2018-11-06T22:36:36.455Z,29.10
2018-11-06T22:39:07.145Z,29.13
2018-11-06T22:41:38.506Z,28.07
2018-11-06T22:44:07.304Z,29.70
2018-11-06T22:46:36.156Z,28.77
2018-11-06T22:49:05.025Z,29.57
2018-11-06T22:51:33.940Z,29.30
2018-11-06T22:54:02.563Z,28.73
2018-11-06T22:56:31.768Z,29.20
2018-11-06T22:59:01.026Z,28.33
2018-11-06T23:01:40.583Z,26.57
2018-11-06T23:04:09.255Z,28.63
2018-11-06T23:06:37.808Z,28.00
2018-11-06T23:09:09.861Z,29.80
2018-11-06T23:11:38.693Z,29.73
2018-11-06T23:14:07.410Z,28.43
2018-11-06T23:16:38.223Z,28.27
2018-11-06T23:19:06.633Z,30.17
2018-11-06T23:21:35.456Z,30.03
2018-11-06T23:24:04.157Z,29.30
2018-11-06T23:26:32.783Z,30.07
2018-11-06T23:29:01.271Z,29.73
2018-11-06T23:31:29.914Z,30.87
2018-11-06T23:33:58.256Z,32.20
2018-11-06T23:36:26.636Z,34.33
2018-11-06T23:38:55.056Z,32.93
2018-11-06T23:41:23.453Z,34.40
2018-11-06T23:43:51.835Z,35.63
2018-11-06T23:46:20.179Z,33.00
2018-11-06T23:48:49.322Z,36.10
2018-11-06T23:51:17.742Z,36.57
2018-11-06T23:53:46.247Z,37.70
2018-11-06T23:56:14.683Z,37.17
2018-11-06T23:58:43.145Z,35.93
